Time;durP1;ratioP1;P1;durP2;ratioP2;P2;SDS_P1;SDS_P2;PMS_P1;PMS_P2;Temp;Humidity;BMP_temperature;BMP_pressure;BME280_temperature;BME280_humidity;BME280_pressure;Samples;Min_cycle;Max_cycle;Signal;HPM_P1;HPM_P2
2022/12/06 00:01:16;;;;;;;7.70;5.28;;;4.00;99.90;;;;;;6213899;23;20199;-83
2022/12/06 00:03:44;;;;;;;8.80;5.97;;;4.00;99.90;;;;;;6213713;23;20134;-78
2022/12/06 00:06:13;;;;;;;9.07;5.57;;;4.00;99.90;;;;;;6214974;23;20153;-85
2022/12/06 00:08:39;;;;;;;11.65;5.40;;;4.00;99.90;;;;;;6216394;23;20149;-86
2022/12/06 00:11:14;;;;;;;10.20;5.40;;;4.00;99.90;;;;;;6216673;23;20263;-83
2022/12/06 00:13:41;;;;;;;9.32;6.03;;;4.00;99.90;;;;;;6215111;23;20379;-85
2022/12/06 00:16:09;;;;;;;7.50;5.97;;;4.00;99.90;;;;;;6214116;23;20392;-80
2022/12/06 00:18:36;;;;;;;7.68;6.25;;;3.90;99.90;;;;;;6213040;23;20240;-86
2022/12/06 00:21:21;;;;;;;12.73;5.53;;;3.90;99.90;;;;;;6212519;23;20260;-86
2022/12/06 00:23:52;;;;;;;9.57;6.18;;;3.90;99.90;;;;;;6214469;23;20204;-86
2022/12/06 00:26:20;;;;;;;10.23;7.03;;;3.90;99.90;;;;;;6215579;23;20169;-83
2022/12/06 00:28:45;;;;;;;10.02;7.55;;;3.90;99.90;;;;;;6211946;23;20187;-81
2022/12/06 00:31:15;;;;;;;9.00;6.90;;;3.90;99.90;;;;;;6207884;22;20378;-89
2022/12/06 00:33:41;;;;;;;9.88;6.25;;;6.30;99.90;;;;;;6186519;23;20369;-86
2022/12/06 00:36:12;;;;;;;8.30;6.73;;;3.90;99.90;;;;;;6183699;23;20193;-88
2022/12/06 00:38:38;;;;;;;10.82;7.43;;;4.00;99.90;;;;;;6182160;23;20174;-88
2022/12/06 00:41:06;;;;;;;12.33;9.00;;;4.00;99.90;;;;;;6180244;23;20146;-88
2022/12/06 00:43:32;;;;;;;9.27;7.95;;;3.90;99.90;;;;;;6179429;23;20165;-86
2022/12/06 00:45:58;;;;;;;10.32;7.95;;;4.00;99.90;;;;;;6181302;23;20150;-89
2022/12/06 00:48:24;;;;;;;11.32;7.80;;;4.30;99.90;;;;;;6178757;23;20162;-87
2022/12/06 00:50:50;;;;;;;14.88;8.02;;;4.00;99.90;;;;;;6184520;23;20149;-87
2022/12/06 00:53:16;;;;;;;7.90;6.03;;;4.00;99.90;;;;;;6180899;23;20149;-88
2022/12/06 00:55:42;;;;;;;12.87;8.87;;;3.90;99.90;;;;;;6183218;23;20764;-88
2022/12/06 00:58:08;;;;;;;11.25;7.68;;;3.90;99.90;;;;;;6175991;23;20170;-86
2022/12/06 01:00:34;;;;;;;11.95;5.82;;;3.90;99.90;;;;;;6181215;23;20154;-89
2022/12/06 01:03:00;;;;;;;7.33;5.20;;;;;;;;;;6184326;23;20141;-88
2022/12/06 01:05:26;;;;;;;8.18;5.60;;;3.90;99.90;;;;;;6182323;23;20208;-88
2022/12/06 01:07:52;;;;;;;6.13;4.72;;;4.00;99.90;;;;;;6180594;23;20508;-89
2022/12/06 01:10:18;;;;;;;7.47;5.47;;;;;;;;;;6183313;23;20154;-88
2022/12/06 01:12:44;;;;;;;7.50;5.53;;;4.00;99.90;;;;;;6182384;23;20704;-90
2022/12/06 01:15:10;;;;;;;9.20;5.47;;;4.00;99.90;;;;;;6183079;23;20456;-88
2022/12/06 01:17:36;;;;;;;12.20;6.30;;;;;;;;;;6184399;23;20208;-87
2022/12/06 01:20:02;;;;;;;7.13;4.80;;;4.00;99.90;;;;;;6184040;23;20161;-88
2022/12/06 01:22:28;;;;;;;6.97;5.40;;;4.20;99.90;;;;;;6182115;23;20162;-87
2022/12/06 01:24:54;;;;;;;7.40;4.97;;;;;;;;;;6183754;23;20740;-88
2022/12/06 01:27:19;;;;;;;7.63;5.13;;;4.40;99.90;;;;;;6174171;23;20223;-89
2022/12/06 01:29:45;;;;;;;8.30;6.00;;;;;;;;;;6179564;23;20416;-87
2022/12/06 01:32:11;;;;;;;6.18;4.85;;;4.50;99.90;;;;;;6156660;23;20261;-88
2022/12/06 01:34:36;;;;;;;6.73;5.50;;;4.50;99.90;;;;;;6124076;23;20665;-89
2022/12/06 01:37:02;;;;;;;8.13;5.80;;;4.50;99.90;;;;;;6123350;23;20162;-88
2022/12/06 01:39:28;;;;;;;11.90;7.30;;;;;;;;;;6150214;23;20254;-90
2022/12/06 01:41:53;;;;;;;7.60;6.20;;;4.40;99.90;;;;;;6135387;23;20387;-87
2022/12/06 01:44:44;;;;;;;8.83;6.53;;;4.40;99.90;;;;;;6166870;23;20385;-89
2022/12/06 01:47:13;;;;;;;11.25;7.13;;;4.30;99.90;;;;;;6125179;23;20150;-89
2022/12/06 01:49:42;;;;;;;18.60;7.95;;;4.30;99.90;;;;;;6123786;23;20175;-90
2022/12/06 01:52:11;;;;;;;9.70;7.40;;;4.30;99.90;;;;;;6123527;23;20158;-89
2022/12/06 01:54:37;;;;;;;10.55;7.80;;;4.40;99.90;;;;;;6154138;23;20190;-89
2022/12/06 01:57:05;;;;;;;8.17;7.03;;;4.50;99.90;;;;;;6151670;23;20174;-87
2022/12/06 01:59:31;;;;;;;13.57;7.32;;;4.30;99.90;;;;;;6152460;23;20193;-90
2022/12/06 02:01:57;;;;;;;15.60;10.47;;;4.30;99.90;;;;;;6121412;23;20150;-88
2022/12/06 02:04:23;;;;;;;12.38;6.90;;;4.40;99.90;;;;;;6149908;23;20143;-90
2022/12/06 02:06:51;;;;;;;8.60;6.03;;;4.30;99.90;;;;;;6151835;23;20173;-88
2022/12/06 02:09:18;;;;;;;14.10;8.43;;;4.30;99.90;;;;;;6126907;23;20797;-87
2022/12/06 02:11:46;;;;;;;12.48;6.85;;;4.30;99.90;;;;;;6122128;23;20550;-89
2022/12/06 02:14:15;;;;;;;13.05;7.40;;;4.30;99.90;;;;;;6148280;23;20139;-91
2022/12/06 02:16:49;;;;;;;15.80;9.05;;;4.30;99.90;;;;;;6148506;23;20157;-89
2022/12/06 02:19:53;;;;;;;12.73;9.63;;;4.30;99.90;;;;;;6123134;23;20178;-87
2022/12/06 02:22:43;;;;;;;11.57;8.68;;;4.30;99.90;;;;;;6121797;23;20219;-87
2022/12/06 02:25:45;;;;;;;13.25;7.18;;;4.30;99.90;;;;;;6123453;23;20150;-87
2022/12/06 02:28:48;;;;;;;19.38;8.63;;;4.30;99.90;;;;;;6148941;23;20520;-88
2022/12/06 02:31:33;;;;;;;16.88;10.15;;;4.30;99.90;;;;;;6137585;23;20180;-87
2022/12/06 02:34:00;;;;;;;19.95;10.25;;;4.30;99.90;;;;;;6176211;23;20244;-88
2022/12/06 02:36:48;;;;;;;12.10;8.90;;;4.30;99.90;;;;;;6174045;23;20173;-89
2022/12/06 02:39:24;;;;;;;15.52;9.30;;;4.20;99.90;;;;;;6173543;23;20288;-88
2022/12/06 02:42:00;;;;;;;13.98;7.65;;;4.20;99.90;;;;;;6171653;23;20160;-88
2022/12/06 02:44:38;;;;;;;13.95;8.07;;;4.20;99.90;;;;;;6172508;23;20216;-88
2022/12/06 02:47:07;;;;;;;13.10;9.20;;;4.20;99.90;;;;;;6177630;23;20152;-87
2022/12/06 02:49:36;;;;;;;12.43;7.40;;;4.20;99.90;;;;;;6179121;23;20181;-89
2022/12/06 02:52:04;;;;;;;9.48;6.70;;;4.20;99.90;;;;;;6178423;23;20276;-87
2022/12/06 02:54:31;;;;;;;13.63;8.30;;;4.20;99.90;;;;;;6175584;23;20808;-88
2022/12/06 02:56:56;;;;;;;11.23;7.38;;;4.10;99.90;;;;;;6179149;23;20525;-89
2022/12/06 02:59:22;;;;;;;14.03;8.73;;;;;;;;;;6175929;23;20227;-88
2022/12/06 03:01:51;;;;;;;11.87;7.10;;;4.10;99.90;;;;;;6173780;23;20489;-89
2022/12/06 03:04:30;;;;;;;12.48;7.50;;;3.70;99.90;;;;;;6173622;23;20392;-89
2022/12/06 03:07:06;;;;;;;10.93;7.68;;;4.00;99.90;;;;;;6187421;23;20122;-87
2022/12/06 03:09:58;;;;;;;26.65;8.23;;;4.10;99.90;;;;;;6192789;23;20224;-87
2022/12/06 03:12:36;;;;;;;13.25;7.43;;;4.00;99.90;;;;;;6200454;23;20142;-87
2022/12/06 03:15:26;;;;;;;13.40;8.88;;;4.00;99.90;;;;;;6202233;23;20157;-86
2022/12/06 03:18:01;;;;;;;13.10;7.97;;;4.10;99.90;;;;;;6180966;23;20182;-86
2022/12/06 03:20:41;;;;;;;10.98;6.82;;;4.00;99.90;;;;;;6175728;23;20145;-88
2022/12/06 03:23:13;;;;;;;14.25;8.85;;;4.00;99.90;;;;;;6187285;23;20936;-89
2022/12/06 03:25:40;;;;;;;15.23;10.88;;;4.00;99.90;;;;;;6191515;23;20156;-87
2022/12/06 03:28:07;;;;;;;13.07;10.80;;;4.00;99.90;;;;;;6185533;23;20174;-89
2022/12/06 03:30:34;;;;;;;20.52;12.35;;;4.10;99.90;;;;;;6174660;23;20146;-89
2022/12/06 03:33:00;;;;;;;14.95;9.80;;;4.10;99.90;;;;;;6120119;23;20157;-89
2022/12/06 03:35:30;;;;;;;13.38;10.30;;;4.20;99.90;;;;;;6123339;23;21012;-88
2022/12/06 03:38:02;;;;;;;11.45;8.02;;;4.20;99.90;;;;;;6121630;23;20253;-89
2022/12/06 03:40:34;;;;;;;11.95;7.68;;;4.20;99.90;;;;;;6122346;23;20147;-89
2022/12/06 03:43:00;;;;;;;16.55;13.30;;;4.20;99.90;;;;;;6148223;23;20151;-89
2022/12/06 03:45:54;;;;;;;20.07;10.27;;;4.10;99.90;;;;;;6123435;23;20169;-88
2022/12/06 03:48:26;;;;;;;14.48;8.73;;;4.10;99.90;;;;;;6148816;23;20393;-89
2022/12/06 03:50:57;;;;;;;15.13;8.70;;;4.10;99.90;;;;;;6149944;23;20159;-88
2022/12/06 03:53:22;;;;;;;14.88;9.65;;;4.20;99.90;;;;;;6119925;23;20149;-87
2022/12/06 03:55:48;;;;;;;17.23;9.27;;;;;;;;;;6148733;23;20279;-89
2022/12/06 03:58:14;;;;;;;15.70;11.10;;;;;;;;;;6123315;23;20171;-89
2022/12/06 04:00:40;;;;;;;11.63;9.40;;;;;;;;;;6147489;23;20428;-88
2022/12/06 04:03:06;;;;;;;14.90;9.33;;;4.40;99.90;;;;;;6120427;23;20374;-88
2022/12/06 04:05:31;;;;;;;11.63;7.73;;;4.40;99.90;;;;;;6148009;23;20373;-89
2022/12/06 04:07:57;;;;;;;11.53;8.53;;;4.30;99.90;;;;;;6168633;23;20178;-86
2022/12/06 04:10:23;;;;;;;13.70;8.27;;;;;;;;;;6131933;23;20182;-88
2022/12/06 04:13:09;;;;;;;13.00;7.63;;;4.50;99.90;;;;;;6150737;23;20177;-88
2022/12/06 04:15:37;;;;;;;18.73;8.57;;;3.80;99.90;;;;;;6147133;23;20186;-88
2022/12/06 04:18:14;;;;;;;11.15;8.23;;;4.50;99.90;;;;;;6118207;23;20175;-89
2022/12/06 04:23:43;;;;;;;11.98;7.78;;;4.70;99.90;;;;;;6146214;23;20578;-88
2022/12/06 04:26:12;;;;;;;11.75;8.32;;;4.70;99.90;;;;;;6120286;23;20194;-86
2022/12/06 04:39:35;;;;;;;15.82;10.32;;;4.40;99.90;;;;;;6162417;23;20189;-87
2022/12/06 04:44:46;;;;;;;14.48;9.23;;;4.50;99.90;;;;;;6147196;23;20150;-88
2022/12/06 04:47:12;;;;;;;13.63;8.67;;;4.60;99.90;;;;;;6126490;23;20163;-88
2022/12/06 04:49:38;;;;;;;13.70;8.03;;;;;;;;;;6153494;23;20453;-88
2022/12/06 04:52:05;;;;;;;16.63;8.48;;;4.70;99.90;;;;;;6126618;23;20411;-90
2022/12/06 04:54:31;;;;;;;10.95;7.53;;;4.80;99.90;;;;;;6150467;23;20200;-88
2022/12/06 04:56:58;;;;;;;11.70;7.60;;;4.80;99.90;;;;;;6145971;23;20154;-88
2022/12/06 04:59:25;;;;;;;13.27;8.77;;;4.70;99.90;;;;;;6121883;23;20182;-88
2022/12/06 05:01:51;;;;;;;12.40;7.63;;;4.60;99.90;;;;;;6123541;23;20343;-87
2022/12/06 05:04:18;;;;;;;10.85;8.10;;;4.50;99.90;;;;;;6155086;23;20252;-87
2022/12/06 05:06:44;;;;;;;13.15;8.55;;;4.50;99.90;;;;;;6154661;23;20142;-89
2022/12/06 05:09:09;;;;;;;14.90;8.87;;;4.60;99.90;;;;;;6124887;23;20642;-89
2022/12/06 05:11:35;;;;;;;12.77;10.23;;;;;;;;;;6153226;23;20385;-89
2022/12/06 05:14:01;;;;;;;17.20;10.25;;;4.50;99.90;;;;;;6123841;23;20238;-88
2022/12/06 05:16:27;;;;;;;15.73;8.90;;;;;;;;;;6149072;23;20747;-89
2022/12/06 05:18:53;;;;;;;11.95;8.52;;;4.50;99.90;;;;;;6148035;23;20173;-89
2022/12/06 05:21:21;;;;;;;14.73;8.87;;;4.30;99.90;;;;;;6153146;23;20500;-89
2022/12/06 05:23:47;;;;;;;12.82;8.00;;;4.30;99.90;;;;;;6150567;23;20657;-87
2022/12/06 05:26:17;;;;;;;17.27;11.13;;;4.30;99.90;;;;;;6122474;23;20325;-88
2022/12/06 05:28:46;;;;;;;16.05;9.55;;;4.30;99.90;;;;;;6150022;23;20394;-87
2022/12/06 05:31:12;;;;;;;14.82;9.15;;;4.30;99.90;;;;;;6148889;23;20242;-88
2022/12/06 05:33:38;;;;;;;21.77;10.27;;;4.20;99.90;;;;;;6146872;23;20155;-87
2022/12/06 05:36:14;;;;;;;17.88;10.82;;;4.30;99.90;;;;;;6121794;23;20396;-89
2022/12/06 05:38:41;;;;;;;19.50;10.90;;;4.30;99.90;;;;;;6144949;23;20269;-87
2022/12/06 05:41:07;;;;;;;17.40;11.70;;;4.30;99.90;;;;;;6139782;23;20139;-88
2022/12/06 05:43:33;;;;;;;19.17;12.30;;;4.40;99.90;;;;;;6121054;23;20237;-89
2022/12/06 05:45:59;;;;;;;22.37;13.80;;;;;;;;;;6122634;23;20389;-88
2022/12/06 05:48:25;;;;;;;16.73;12.95;;;4.70;99.90;;;;;;6166334;23;20218;-84
2022/12/06 05:50:52;;;;;;;12.77;9.77;;;4.80;99.90;;;;;;6151803;23;20142;-87
2022/12/06 05:53:18;;;;;;;14.90;9.25;;;4.90;99.90;;;;;;6162225;23;20155;-90
2022/12/06 05:55:44;;;;;;;20.17;11.57;;;4.80;99.90;;;;;;6130003;23;20332;-90
2022/12/06 05:58:10;;;;;;;16.47;10.40;;;4.70;99.90;;;;;;6124605;23;20393;-86
2022/12/06 06:00:36;;;;;;;18.45;11.40;;;4.50;99.90;;;;;;6123987;23;20416;-88
2022/12/06 06:03:02;;;;;;;20.10;12.50;;;4.50;99.90;;;;;;6157056;23;20131;-85
2022/12/06 06:05:28;;;;;;;18.63;11.30;;;4.40;99.90;;;;;;6173855;23;20142;-85
2022/12/06 06:07:54;;;;;;;19.17;12.20;;;;;;;;;;6147102;23;20425;-86
2022/12/06 06:10:20;;;;;;;18.75;11.63;;;4.30;99.90;;;;;;6172862;23;20134;-85
2022/12/06 06:12:45;;;;;;;19.80;12.20;;;4.30;99.90;;;;;;6155899;23;20192;-87
2022/12/06 06:15:12;;;;;;;20.10;11.93;;;4.30;99.90;;;;;;6145081;23;20621;-86
2022/12/06 06:17:38;;;;;;;23.42;14.75;;;4.30;99.90;;;;;;6139631;23;20139;-89
2022/12/06 06:20:06;;;;;;;24.98;16.13;;;4.30;99.90;;;;;;6118761;23;20226;-87
2022/12/06 06:22:35;;;;;;;39.13;20.40;;;4.30;99.90;;;;;;6121608;23;20206;-88
2022/12/06 06:25:02;;;;;;;23.40;13.15;;;4.40;99.90;;;;;;6121271;23;20911;-86
2022/12/06 06:27:27;;;;;;;53.97;24.35;;;4.20;99.90;;;;;;6113430;23;20158;-88
2022/12/06 06:29:53;;;;;;;21.03;14.10;;;;;;;;;;6122480;23;20183;-88
2022/12/06 06:32:19;;;;;;;25.90;14.52;;;4.20;99.90;;;;;;6158164;23;20479;-86
2022/12/06 06:34:45;;;;;;;20.98;12.68;;;5.00;99.90;;;;;;6176788;23;20177;-85
2022/12/06 06:37:11;;;;;;;15.17;11.20;;;4.20;99.90;;;;;;6177346;23;20212;-88
2022/12/06 06:39:36;;;;;;;21.90;11.30;;;4.30;99.90;;;;;;6175634;23;20173;-86
2022/12/06 06:42:02;;;;;;;19.87;12.17;;;;;;;;;;6175941;23;20625;-87
2022/12/06 06:44:28;;;;;;;22.20;12.03;;;;;;;;;;6174296;23;20161;-86
2022/12/06 06:46:54;;;;;;;29.97;13.67;;;;;;;;;;6178806;23;20386;-88
2022/12/06 06:49:20;;;;;;;21.90;13.27;;;;;;;;;;6170348;23;20398;-88
2022/12/06 06:51:46;;;;;;;23.67;12.32;;;4.00;99.90;;;;;;6176769;23;20467;-88
2022/12/06 06:54:12;;;;;;;21.50;12.60;;;;;;;;;;6173526;23;20591;-88
2022/12/06 06:56:38;;;;;;;23.63;14.95;;;3.90;99.90;;;;;;6173953;23;20687;-88
2022/12/06 06:59:04;;;;;;;21.80;13.10;;;;;;;;;;6174483;23;20178;-89
2022/12/06 07:01:30;;;;;;;25.60;13.77;;;;;;;;;;6178058;23;20401;-88
2022/12/06 07:03:55;;;;;;;21.17;13.07;;;4.00;99.90;;;;;;6177347;23;20859;-88
2022/12/06 07:06:22;;;;;;;23.13;12.80;;;;;;;;;;6177345;23;20361;-88
2022/12/06 07:08:48;;;;;;;22.70;13.13;;;4.00;99.90;;;;;;6177176;23;20181;-88
2022/12/06 07:11:17;;;;;;;28.42;14.75;;;4.00;99.90;;;;;;6176261;23;20150;-86
2022/12/06 07:13:43;;;;;;;28.83;16.80;;;4.00;99.90;;;;;;6173148;23;20185;-88
2022/12/06 07:16:15;;;;;;;22.00;14.23;;;4.00;99.90;;;;;;6175419;23;20182;-87
2022/12/06 07:18:42;;;;;;;20.15;12.20;;;4.00;99.90;;;;;;6175295;23;20173;-89
2022/12/06 07:21:10;;;;;;;19.02;11.68;;;3.90;99.90;;;;;;6174017;23;20169;-87
2022/12/06 07:23:36;;;;;;;23.67;11.85;;;3.90;99.90;;;;;;6175475;23;20138;-88
2022/12/06 07:26:14;;;;;;;17.92;10.32;;;3.90;99.90;;;;;;6174271;23;20150;-87
2022/12/06 07:28:43;;;;;;;25.23;17.35;;;3.80;99.90;;;;;;6178177;23;20165;-87
2022/12/06 07:31:16;;;;;;;30.15;14.82;;;3.90;99.90;;;;;;6158207;23;20202;-82
2022/12/06 07:33:42;;;;;;;22.05;11.93;;;3.90;99.90;;;;;;6143547;23;20170;-85
2022/12/06 07:36:09;;;;;;;19.30;12.13;;;3.90;99.90;;;;;;6141873;23;20315;-81
2022/12/06 07:38:34;;;;;;;19.63;13.02;;;3.90;99.90;;;;;;6143660;23;20234;-84
2022/12/06 07:44:59;;;;;;;19.83;12.37;;;3.90;99.90;;;;;;6143635;23;20212;-83
2022/12/06 07:46:38;;;;;;;19.23;10.98;;;3.90;99.90;;;;;;6144576;23;20957;-83
2022/12/06 07:49:04;;;;;;;20.37;11.97;;;4.00;99.90;;;;;;6154920;23;20132;-83
2022/12/06 07:51:29;;;;;;;24.13;14.90;;;3.90;99.90;;;;;;6151929;23;20247;-82
2022/12/06 07:53:55;;;;;;;16.00;9.03;;;4.00;99.90;;;;;;6150960;23;20382;-84
2022/12/06 07:56:20;;;;;;;18.47;10.90;;;3.90;99.90;;;;;;6151448;23;20166;-83
2022/12/06 07:58:46;;;;;;;26.50;13.93;;;3.90;99.90;;;;;;6156920;23;20159;-85
2022/12/06 08:01:11;;;;;;;19.90;11.60;;;4.00;99.90;;;;;;6148005;23;20174;-83
2022/12/06 08:03:37;;;;;;;19.80;12.40;;;4.00;99.90;;;;;;6147395;23;20158;-83
2022/12/06 08:06:03;;;;;;;18.03;9.80;;;3.90;99.90;;;;;;6149152;23;20170;-82
2022/12/06 08:08:30;;;;;;;21.20;12.00;;;4.00;99.90;;;;;;6148078;23;20162;-81
2022/12/06 08:11:00;;;;;;;22.85;12.07;;;3.90;99.90;;;;;;6147513;23;20701;-82
2022/12/06 08:13:27;;;;;;;20.13;9.38;;;3.90;99.90;;;;;;6148158;23;20937;-86
2022/12/06 08:15:52;;;;;;;13.07;8.80;;;3.90;99.90;;;;;;6146920;23;20190;-83
2022/12/06 08:18:18;;;;;;;16.67;8.77;;;3.90;99.90;;;;;;6147090;23;20158;-84
2022/12/06 08:20:43;;;;;;;11.23;8.20;;;3.90;99.90;;;;;;6146521;23;20182;-82
2022/12/06 08:23:09;;;;;;;14.57;8.60;;;3.90;99.90;;;;;;6148971;23;20154;-85
2022/12/06 08:25:34;;;;;;;12.00;7.57;;;3.90;99.90;;;;;;6159173;23;20159;-80
2022/12/06 08:28:00;;;;;;;13.17;7.80;;;4.00;99.90;;;;;;6157993;23;20186;-85
2022/12/06 08:30:25;;;;;;;12.80;7.57;;;3.90;99.90;;;;;;6148861;23;20221;-82
2022/12/06 08:32:51;;;;;;;13.13;7.40;;;3.90;99.90;;;;;;6146380;23;20159;-84
2022/12/06 08:35:16;;;;;;;11.47;6.57;;;3.90;99.90;;;;;;6148363;23;20655;-83
2022/12/06 08:37:42;;;;;;;17.03;8.23;;;4.00;99.90;;;;;;6145720;23;20165;-82
2022/12/06 08:40:08;;;;;;;16.53;8.40;;;4.00;99.90;;;;;;6145854;23;20182;-81
2022/12/06 08:42:33;;;;;;;12.20;8.20;;;4.00;99.90;;;;;;6146129;23;20241;-82
2022/12/06 08:44:59;;;;;;;10.93;5.93;;;;;;;;;;6155379;23;20397;-80
2022/12/06 08:47:25;;;;;;;16.53;8.57;;;4.00;99.90;;;;;;6158005;23;20167;-85
2022/12/06 08:49:51;;;;;;;14.80;7.80;;;;;;;;;;6148795;23;20481;-83
2022/12/06 08:52:17;;;;;;;10.60;5.20;;;3.90;99.90;;;;;;6147073;23;20175;-83
2022/12/06 08:54:42;;;;;;;12.80;8.50;;;3.90;99.90;;;;;;6144134;23;20390;-81
2022/12/06 08:57:08;;;;;;;12.50;5.87;;;3.90;99.90;;;;;;6145686;23;20228;-82
2022/12/06 08:59:33;;;;;;;11.90;6.60;;;3.80;99.90;;;;;;6147528;23;20173;-83
2022/12/06 09:01:59;;;;;;;12.30;6.50;;;3.80;99.90;;;;;;6146585;23;20155;-83
2022/12/06 09:04:26;;;;;;;9.43;6.33;;;3.80;99.90;;;;;;6156335;23;20142;-83
2022/12/06 09:06:51;;;;;;;9.32;5.70;;;3.80;99.90;;;;;;6153352;23;20631;-81
2022/12/06 09:09:17;;;;;;;11.90;7.50;;;3.80;99.90;;;;;;6149418;23;20205;-83
2022/12/06 09:11:44;;;;;;;9.65;4.70;;;3.80;99.90;;;;;;6150057;23;20264;-82
2022/12/06 09:14:13;;;;;;;9.93;6.65;;;3.80;99.90;;;;;;6164254;23;20158;-83
2022/12/06 09:16:41;;;;;;;14.65;7.72;;;3.70;99.90;;;;;;6153314;23;20249;-82
2022/12/06 09:19:06;;;;;;;13.13;7.18;;;3.80;99.90;;;;;;6150348;23;20146;-85
2022/12/06 09:21:33;;;;;;;12.73;6.80;;;3.90;99.90;;;;;;6147613;23;20185;-83
2022/12/06 09:23:59;;;;;;;14.85;7.38;;;3.90;99.90;;;;;;6147433;23;20777;-81
2022/12/06 09:26:25;;;;;;;12.50;6.87;;;3.90;99.90;;;;;;6145308;23;20135;-82
2022/12/06 09:28:53;;;;;;;12.10;7.07;;;4.00;99.90;;;;;;6145559;23;20410;-82
2022/12/06 09:31:19;;;;;;;9.80;7.10;;;4.00;99.90;;;;;;6145830;23;20194;-82
2022/12/06 09:33:45;;;;;;;11.70;5.73;;;;;;;;;;6146912;23;20165;-83
2022/12/06 09:36:26;;;;;;;11.32;7.25;;;4.00;99.90;;;;;;6151922;23;20185;-81
2022/12/06 09:38:59;;;;;;;9.85;5.18;;;4.10;99.90;;;;;;6144984;23;20145;-84
2022/12/06 09:42:11;;;;;;;9.27;6.10;;;4.10;99.90;;;;;;6135423;23;20178;-82
2022/12/06 09:44:49;;;;;;;6.53;4.18;;;4.10;99.90;;;;;;6145143;23;20150;-83
2022/12/06 09:47:46;;;;;;;9.27;5.90;;;4.10;99.90;;;;;;6147831;23;20141;-84
2022/12/06 09:50:42;;;;;;;7.57;4.88;;;4.20;99.90;;;;;;6150030;23;20186;-83
2022/12/06 09:53:13;;;;;;;8.68;4.60;;;4.20;99.90;;;;;;6142590;23;20185;-82
2022/12/06 09:55:57;;;;;;;7.63;4.45;;;4.20;99.90;;;;;;6143386;23;20212;-82
2022/12/06 09:58:46;;;;;;;7.28;3.80;;;4.10;99.90;;;;;;6142682;23;20147;-87
2022/12/06 10:01:15;;;;;;;6.25;2.92;;;4.10;99.90;;;;;;6145177;23;20171;-82
2022/12/06 10:04:18;;;;;;;4.68;3.58;;;4.10;99.90;;;;;;6142727;23;20543;-84
2022/12/06 10:07:14;;;;;;;7.68;4.30;;;4.20;99.90;;;;;;6145834;23;20581;-83
2022/12/06 10:10:10;;;;;;;5.75;4.10;;;4.20;99.90;;;;;;6138287;23;20209;-82
2022/12/06 10:12:55;;;;;;;9.07;3.55;;;4.20;99.90;;;;;;6142036;23;20202;-84
2022/12/06 10:16:04;;;;;;;6.03;4.03;;;4.10;99.90;;;;;;6143235;23;20194;-85
2022/12/06 10:18:32;;;;;;;11.63;5.45;;;4.20;99.90;;;;;;6158952;23;20154;-84
2022/12/06 10:21:04;;;;;;;7.47;4.43;;;4.20;99.90;;;;;;6150304;23;20178;-83
2022/12/06 10:23:32;;;;;;;7.00;4.53;;;4.20;99.90;;;;;;6150567;23;20154;-84
2022/12/06 10:26:13;;;;;;;5.35;3.67;;;4.20;99.90;;;;;;6148593;23;20161;-85
2022/12/06 10:28:59;;;;;;;4.82;3.55;;;4.20;99.90;;;;;;6160052;23;20159;-85
2022/12/06 10:31:43;;;;;;;7.63;3.22;;;4.20;99.90;;;;;;6147232;23;20244;-84
2022/12/06 10:34:43;;;;;;;7.55;3.03;;;4.00;99.90;;;;;;6143183;23;20150;-80
2022/12/06 10:37:21;;;;;;;4.70;3.58;;;4.10;99.90;;;;;;6144606;23;20139;-83
2022/12/06 10:39:56;;;;;;;6.40;4.03;;;4.10;99.90;;;;;;6143591;23;20602;-82
2022/12/06 10:42:37;;;;;;;7.78;4.43;;;4.00;99.90;;;;;;6158689;23;20130;-83
2022/12/06 10:48:27;;;;;;;6.18;3.45;;;4.00;99.90;;;;;;6145493;23;20153;-84
2022/12/06 10:51:02;;;;;;;8.00;4.80;;;4.00;99.90;;;;;;6143728;23;20182;-82
2022/12/06 10:53:32;;;;;;;6.38;4.07;;;4.10;99.90;;;;;;6148321;23;20140;-80
2022/12/06 10:56:03;;;;;;;6.60;4.00;;;4.20;99.90;;;;;;6162619;23;20162;-83
2022/12/06 10:58:47;;;;;;;6.47;4.90;;;4.30;99.90;;;;;;6153685;23;20149;-83
2022/12/06 11:01:27;;;;;;;8.32;4.60;;;4.30;99.90;;;;;;6149349;23;20170;-80
2022/12/06 11:04:08;;;;;;;7.30;4.63;;;4.50;99.90;;;;;;6147381;23;20598;-83
2022/12/06 11:06:44;;;;;;;6.50;4.40;;;4.40;99.90;;;;;;6140605;23;20772;-82
2022/12/06 11:09:12;;;;;;;9.23;5.68;;;4.40;99.90;;;;;;6143519;23;20145;-82
2022/12/06 11:11:39;;;;;;;11.90;5.75;;;4.40;99.90;;;;;;6143318;23;20645;-83
2022/12/06 11:14:17;;;;;;;6.63;4.75;;;4.30;99.90;;;;;;6144750;23;20182;-82
2022/12/06 11:16:57;;;;;;;5.57;3.95;;;4.40;99.90;;;;;;6148288;23;20213;-82
2022/12/06 11:19:32;;;;;;;6.43;3.88;;;4.30;99.90;;;;;;6143341;23;20847;-83
2022/12/06 11:22:21;;;;;;;5.90;4.25;;;4.20;99.90;;;;;;6148617;23;20130;-84
2022/12/06 11:25:12;;;;;;;7.15;4.43;;;4.30;99.90;;;;;;6144398;23;20463;-84
2022/12/06 11:27:50;;;;;;;7.15;4.50;;;4.20;99.90;;;;;;6147991;23;20169;-84
2022/12/06 11:30:17;;;;;;;8.85;5.05;;;4.20;99.90;;;;;;6150103;23;20269;-82
2022/12/06 11:32:44;;;;;;;9.90;5.68;;;4.10;99.90;;;;;;6164224;23;20166;-81
2022/12/06 11:35:17;;;;;;;9.80;5.40;;;4.20;99.90;;;;;;6150596;23;20208;-81
2022/12/06 11:37:44;;;;;;;9.07;4.90;;;4.20;99.90;;;;;;6152702;23;20498;-84
2022/12/06 11:40:26;;;;;;;7.53;4.50;;;4.30;99.90;;;;;;6150371;23;20170;-83
2022/12/06 11:42:53;;;;;;;11.60;5.22;;;4.20;99.90;;;;;;6155072;23;20653;-80
2022/12/06 11:45:29;;;;;;;11.43;6.93;;;4.20;99.90;;;;;;6158678;23;20159;-84
2022/12/06 11:47:58;;;;;;;11.57;5.70;;;4.30;99.90;;;;;;6151666;23;20160;-86
2022/12/06 11:50:27;;;;;;;6.85;5.07;;;4.30;99.90;;;;;;6164292;23;20173;-79
2022/12/06 11:52:58;;;;;;;7.68;5.20;;;4.30;99.90;;;;;;6174398;23;20150;-82
2022/12/06 11:55:28;;;;;;;11.70;5.78;;;4.30;99.90;;;;;;6172596;23;20165;-82
2022/12/06 11:58:02;;;;;;;7.88;4.82;;;4.30;99.90;;;;;;6170709;23;20158;-81
2022/12/06 12:00:28;;;;;;;8.85;5.15;;;4.20;99.90;;;;;;6175084;23;20170;-82
2022/12/06 12:02:55;;;;;;;7.90;4.80;;;4.30;99.90;;;;;;6163456;23;20185;-84
2022/12/06 12:05:34;;;;;;;10.35;6.25;;;4.30;99.90;;;;;;6170647;23;20500;-83
2022/12/06 12:08:03;;;;;;;10.23;6.18;;;4.20;99.90;;;;;;6175065;23;20129;-80
2022/12/06 12:10:37;;;;;;;10.63;5.85;;;4.30;99.90;;;;;;6173678;23;20170;-80
2022/12/06 12:16:00;;;;;;;9.82;5.93;;;4.20;99.90;;;;;;6155851;23;20730;-85
2022/12/06 12:18:33;;;;;;;9.98;4.95;;;4.30;99.90;;;;;;6148601;23;20170;-84
2022/12/06 12:21:00;;;;;;;13.40;6.63;;;4.30;99.90;;;;;;6147121;23;20232;-84
2022/12/06 12:23:43;;;;;;;12.43;7.53;;;4.20;99.90;;;;;;6145861;23;20221;-84
2022/12/06 12:26:17;;;;;;;13.23;6.43;;;4.10;99.90;;;;;;6148191;23;20198;-82
2022/12/06 12:29:00;;;;;;;9.23;5.55;;;4.20;99.90;;;;;;6145814;23;20684;-82
2022/12/06 12:31:25;;;;;;;7.80;5.35;;;4.20;99.90;;;;;;6148052;23;20680;-82
2022/12/06 12:34:22;;;;;;;10.03;6.30;;;4.30;99.90;;;;;;6147452;23;20150;-82
2022/12/06 12:36:51;;;;;;;8.80;5.90;;;4.20;99.90;;;;;;6126727;23;20189;-84
2022/12/06 12:39:37;;;;;;;10.10;6.68;;;4.30;99.90;;;;;;6144390;23;20165;-85
2022/12/06 12:42:03;;;;;;;12.95;6.88;;;4.30;99.90;;;;;;6144156;23;20289;-84
2022/12/06 12:44:36;;;;;;;12.95;8.38;;;4.10;99.90;;;;;;6146088;23;20163;-86
2022/12/06 12:47:14;;;;;;;11.60;6.80;;;4.10;99.90;;;;;;6162591;23;20696;-83
2022/12/06 12:49:40;;;;;;;9.23;5.97;;;4.00;99.90;;;;;;6152926;23;20138;-86
2022/12/06 12:52:29;;;;;;;10.70;6.00;;;4.00;99.90;;;;;;6151990;23;20146;-83
2022/12/06 12:55:14;;;;;;;9.30;6.03;;;4.00;99.90;;;;;;6151502;23;20174;-82
2022/12/06 12:57:42;;;;;;;10.98;6.05;;;4.00;99.90;;;;;;6148340;23;20147;-83
2022/12/06 13:00:29;;;;;;;13.90;7.13;;;3.90;99.90;;;;;;6162130;23;20692;-80
2022/12/06 13:02:59;;;;;;;14.15;7.28;;;4.00;99.90;;;;;;6151070;23;20162;-85
2022/12/06 13:05:31;;;;;;;10.15;5.65;;;4.00;99.90;;;;;;6149576;23;20147;-85
2022/12/06 13:08:06;;;;;;;10.23;5.85;;;4.00;99.90;;;;;;6146171;23;20151;-82
2022/12/06 13:10:38;;;;;;;11.82;5.00;;;4.20;99.90;;;;;;6145091;23;20698;-85
2022/12/06 13:13:18;;;;;;;8.25;5.43;;;4.20;99.90;;;;;;6144582;23;20162;-84
2022/12/06 13:15:51;;;;;;;8.00;5.57;;;4.20;99.90;;;;;;6146304;23;20221;-83
2022/12/06 13:18:31;;;;;;;8.48;5.80;;;4.20;99.90;;;;;;6144253;23;20135;-86
2022/12/06 13:20:59;;;;;;;9.57;5.05;;;4.20;99.90;;;;;;6146734;23;20167;-85
2022/12/06 13:23:33;;;;;;;12.23;6.35;;;4.10;99.90;;;;;;6158835;23;20761;-83
2022/12/06 13:26:28;;;;;;;9.05;5.75;;;4.00;99.90;;;;;;6163514;23;20138;-87
2022/12/06 13:29:03;;;;;;;9.88;5.88;;;4.00;99.90;;;;;;6146040;23;20313;-82
2022/12/06 13:31:35;;;;;;;10.93;5.95;;;4.00;99.90;;;;;;6142263;23;20185;-81
2022/12/06 13:34:11;;;;;;;7.45;4.05;;;3.90;99.90;;;;;;6138550;23;20193;-81
2022/12/06 13:36:37;;;;;;;7.03;4.82;;;;;;;;;;6169586;23;20196;-88
2022/12/06 13:39:31;;;;;;;9.85;5.65;;;4.00;99.90;;;;;;6212913;23;20218;-86
2022/12/06 13:42:17;;;;;;;9.10;6.55;;;4.00;99.90;;;;;;6214551;23;20968;-88